sensor_id;sensor_type;location;lat;lon;timestamp;P1;durP1;ratioP1;P2;durP2;ratioP2
78752;SDS011;68072;51.688;7.842;2023-11-21T00:00:35;13.18;;;7.90;;
78752;SDS011;68072;51.688;7.842;2023-11-21T00:03:00;14.97;;;8.03;;
78752;SDS011;68072;51.688;7.842;2023-11-21T00:05:26;16.87;;;8.50;;
78752;SDS011;68072;51.688;7.842;2023-11-21T00:07:51;13.77;;;7.93;;
78752;SDS011;68072;51.688;7.842;2023-11-21T00:10:16;14.17;;;7.97;;
78752;SDS011;68072;51.688;7.842;2023-11-21T00:12:42;12.57;;;8.13;;
78752;SDS011;68072;51.688;7.842;2023-11-21T00:15:07;12.35;;;7.13;;
78752;SDS011;68072;51.688;7.842;2023-11-21T00:17:36;16.48;;;8.27;;
78752;SDS011;68072;51.688;7.842;2023-11-21T00:20:02;14.90;;;8.32;;
78752;SDS011;68072;51.688;7.842;2023-11-21T00:22:31;16.27;;;8.15;;
78752;SDS011;68072;51.688;7.842;2023-11-21T00:24:57;17.27;;;8.35;;
78752;SDS011;68072;51.688;7.842;2023-11-21T00:27:22;12.30;;;7.60;;
78752;SDS011;68072;51.688;7.842;2023-11-21T00:29:47;12.77;;;8.23;;
78752;SDS011;68072;51.688;7.842;2023-11-21T00:32:13;16.80;;;8.37;;
78752;SDS011;68072;51.688;7.842;2023-11-21T00:34:38;14.90;;;8.53;;
78752;SDS011;68072;51.688;7.842;2023-11-21T00:37:03;11.48;;;7.20;;
78752;SDS011;68072;51.688;7.842;2023-11-21T00:39:29;16.80;;;8.77;;
78752;SDS011;68072;51.688;7.842;2023-11-21T00:41:54;13.63;;;7.90;;
78752;SDS011;68072;51.688;7.842;2023-11-21T00:44:19;13.50;;;6.80;;
78752;SDS011;68072;51.688;7.842;2023-11-21T00:46:45;11.77;;;7.30;;
78752;SDS011;68072;51.688;7.842;2023-11-21T00:49:12;16.23;;;8.02;;
78752;SDS011;68072;51.688;7.842;2023-11-21T00:51:38;15.82;;;8.27;;
78752;SDS011;68072;51.688;7.842;2023-11-21T00:54:04;12.30;;;7.43;;
78752;SDS011;68072;51.688;7.842;2023-11-21T00:56:30;14.25;;;8.23;;
78752;SDS011;68072;51.688;7.842;2023-11-21T00:58:55;19.00;;;8.00;;
78752;SDS011;68072;51.688;7.842;2023-11-21T01:01:21;12.63;;;7.27;;
78752;SDS011;68072;51.688;7.842;2023-11-21T01:03:49;17.52;;;8.05;;
78752;SDS011;68072;51.688;7.842;2023-11-21T01:06:15;13.30;;;7.97;;
78752;SDS011;68072;51.688;7.842;2023-11-21T01:08:40;14.90;;;7.17;;
78752;SDS011;68072;51.688;7.842;2023-11-21T01:11:06;12.35;;;7.20;;
78752;SDS011;68072;51.688;7.842;2023-11-21T01:13:33;13.65;;;6.82;;
78752;SDS011;68072;51.688;7.842;2023-11-21T01:16:08;11.50;;;7.90;;
78752;SDS011;68072;51.688;7.842;2023-11-21T01:18:37;14.88;;;7.88;;
78752;SDS011;68072;51.688;7.842;2023-11-21T01:21:03;11.70;;;7.22;;
78752;SDS011;68072;51.688;7.842;2023-11-21T01:23:28;10.98;;;7.20;;
78752;SDS011;68072;51.688;7.842;2023-11-21T01:25:55;15.00;;;7.10;;
78752;SDS011;68072;51.688;7.842;2023-11-21T01:28:20;16.15;;;6.90;;
78752;SDS011;68072;51.688;7.842;2023-11-21T01:30:46;11.60;;;6.47;;
78752;SDS011;68072;51.688;7.842;2023-11-21T01:33:11;10.17;;;6.77;;
78752;SDS011;68072;51.688;7.842;2023-11-21T01:35:36;12.75;;;7.28;;
78752;SDS011;68072;51.688;7.842;2023-11-21T01:38:02;14.23;;;6.90;;
78752;SDS011;68072;51.688;7.842;2023-11-21T01:40:27;13.90;;;7.43;;
78752;SDS011;68072;51.688;7.842;2023-11-21T01:42:53;12.40;;;7.53;;
78752;SDS011;68072;51.688;7.842;2023-11-21T01:45:19;12.33;;;6.97;;
78752;SDS011;68072;51.688;7.842;2023-11-21T01:47:45;9.93;;;6.40;;
78752;SDS011;68072;51.688;7.842;2023-11-21T01:50:12;10.88;;;7.25;;
78752;SDS011;68072;51.688;7.842;2023-11-21T01:52:38;9.63;;;7.22;;
78752;SDS011;68072;51.688;7.842;2023-11-21T01:55:04;19.70;;;7.60;;
78752;SDS011;68072;51.688;7.842;2023-11-21T01:57:31;12.43;;;7.10;;
78752;SDS011;68072;51.688;7.842;2023-11-21T01:59:56;13.37;;;7.30;;
78752;SDS011;68072;51.688;7.842;2023-11-21T02:02:23;12.45;;;7.32;;
78752;SDS011;68072;51.688;7.842;2023-11-21T02:04:49;14.82;;;8.27;;
78752;SDS011;68072;51.688;7.842;2023-11-21T02:07:14;10.87;;;7.13;;
78752;SDS011;68072;51.688;7.842;2023-11-21T02:09:39;17.77;;;7.43;;
78752;SDS011;68072;51.688;7.842;2023-11-21T02:12:07;13.60;;;7.20;;
78752;SDS011;68072;51.688;7.842;2023-11-21T02:14:33;14.95;;;6.95;;
78752;SDS011;68072;51.688;7.842;2023-11-21T02:16:59;14.80;;;6.55;;
78752;SDS011;68072;51.688;7.842;2023-11-21T02:19:26;16.13;;;7.35;;
78752;SDS011;68072;51.688;7.842;2023-11-21T02:21:52;16.00;;;6.60;;
78752;SDS011;68072;51.688;7.842;2023-11-21T02:24:21;13.15;;;6.65;;
78752;SDS011;68072;51.688;7.842;2023-11-21T02:26:46;9.43;;;6.18;;
78752;SDS011;68072;51.688;7.842;2023-11-21T02:29:12;13.65;;;6.68;;
78752;SDS011;68072;51.688;7.842;2023-11-21T02:31:38;12.05;;;6.30;;
78752;SDS011;68072;51.688;7.842;2023-11-21T02:34:12;11.20;;;7.00;;
78752;SDS011;68072;51.688;7.842;2023-11-21T02:36:38;11.40;;;6.03;;
78752;SDS011;68072;51.688;7.842;2023-11-21T02:39:03;12.97;;;7.07;;
78752;SDS011;68072;51.688;7.842;2023-11-21T02:41:28;11.13;;;6.53;;
78752;SDS011;68072;51.688;7.842;2023-11-21T02:43:54;10.37;;;5.90;;
78752;SDS011;68072;51.688;7.842;2023-11-21T02:46:19;10.23;;;6.53;;
78752;SDS011;68072;51.688;7.842;2023-11-21T02:48:44;14.00;;;6.90;;
78752;SDS011;68072;51.688;7.842;2023-11-21T02:51:09;10.83;;;6.93;;
78752;SDS011;68072;51.688;7.842;2023-11-21T02:53:35;14.13;;;6.70;;
78752;SDS011;68072;51.688;7.842;2023-11-21T02:56:00;13.43;;;7.17;;
78752;SDS011;68072;51.688;7.842;2023-11-21T02:58:25;14.63;;;7.13;;
78752;SDS011;68072;51.688;7.842;2023-11-21T03:00:50;13.57;;;7.37;;
78752;SDS011;68072;51.688;7.842;2023-11-21T03:03:16;11.98;;;6.90;;
78752;SDS011;68072;51.688;7.842;2023-11-21T03:05:42;13.90;;;7.75;;
78752;SDS011;68072;51.688;7.842;2023-11-21T03:08:07;13.45;;;6.85;;
78752;SDS011;68072;51.688;7.842;2023-11-21T03:10:33;11.03;;;6.63;;
78752;SDS011;68072;51.688;7.842;2023-11-21T03:12:58;13.18;;;7.28;;
78752;SDS011;68072;51.688;7.842;2023-11-21T03:15:23;11.93;;;6.83;;
78752;SDS011;68072;51.688;7.842;2023-11-21T03:17:49;14.37;;;7.50;;
78752;SDS011;68072;51.688;7.842;2023-11-21T03:20:14;10.30;;;5.90;;
78752;SDS011;68072;51.688;7.842;2023-11-21T03:22:41;10.40;;;6.03;;
78752;SDS011;68072;51.688;7.842;2023-11-21T03:25:07;10.97;;;6.87;;
78752;SDS011;68072;51.688;7.842;2023-11-21T03:27:35;12.35;;;7.80;;
78752;SDS011;68072;51.688;7.842;2023-11-21T03:30:00;16.00;;;7.17;;
78752;SDS011;68072;51.688;7.842;2023-11-21T03:32:26;22.25;;;7.18;;
78752;SDS011;68072;51.688;7.842;2023-11-21T03:34:55;10.77;;;6.63;;
78752;SDS011;68072;51.688;7.842;2023-11-21T03:37:21;16.65;;;6.90;;
78752;SDS011;68072;51.688;7.842;2023-11-21T03:39:46;13.15;;;6.50;;
78752;SDS011;68072;51.688;7.842;2023-11-21T03:42:12;13.10;;;6.63;;
78752;SDS011;68072;51.688;7.842;2023-11-21T03:44:37;13.23;;;6.87;;
78752;SDS011;68072;51.688;7.842;2023-11-21T03:47:03;15.02;;;7.28;;
78752;SDS011;68072;51.688;7.842;2023-11-21T03:49:28;15.75;;;7.53;;
78752;SDS011;68072;51.688;7.842;2023-11-21T03:51:54;13.68;;;7.53;;
78752;SDS011;68072;51.688;7.842;2023-11-21T03:54:19;10.70;;;6.93;;
78752;SDS011;68072;51.688;7.842;2023-11-21T03:56:44;14.30;;;6.80;;
78752;SDS011;68072;51.688;7.842;2023-11-21T03:59:10;12.27;;;6.80;;
78752;SDS011;68072;51.688;7.842;2023-11-21T04:01:35;12.68;;;6.95;;
78752;SDS011;68072;51.688;7.842;2023-11-21T04:04:00;14.67;;;6.37;;
78752;SDS011;68072;51.688;7.842;2023-11-21T04:06:25;16.60;;;7.90;;
78752;SDS011;68072;51.688;7.842;2023-11-21T04:08:51;15.93;;;6.80;;
78752;SDS011;68072;51.688;7.842;2023-11-21T04:11:16;11.87;;;6.80;;
78752;SDS011;68072;51.688;7.842;2023-11-21T04:13:41;22.87;;;8.23;;
78752;SDS011;68072;51.688;7.842;2023-11-21T04:16:07;13.77;;;7.38;;
78752;SDS011;68072;51.688;7.842;2023-11-21T04:18:33;14.90;;;7.25;;
78752;SDS011;68072;51.688;7.842;2023-11-21T04:20:58;10.88;;;6.22;;
78752;SDS011;68072;51.688;7.842;2023-11-21T04:23:24;16.67;;;6.93;;
78752;SDS011;68072;51.688;7.842;2023-11-21T04:25:49;17.53;;;7.70;;
78752;SDS011;68072;51.688;7.842;2023-11-21T04:28:14;12.77;;;6.67;;
78752;SDS011;68072;51.688;7.842;2023-11-21T04:30:39;14.03;;;6.47;;
78752;SDS011;68072;51.688;7.842;2023-11-21T04:33:05;15.57;;;7.75;;
78752;SDS011;68072;51.688;7.842;2023-11-21T04:35:31;9.65;;;6.90;;
78752;SDS011;68072;51.688;7.842;2023-11-21T04:37:56;11.57;;;6.87;;
78752;SDS011;68072;51.688;7.842;2023-11-21T04:40:22;19.27;;;8.38;;
78752;SDS011;68072;51.688;7.842;2023-11-21T04:42:47;13.80;;;7.30;;
78752;SDS011;68072;51.688;7.842;2023-11-21T04:45:13;14.27;;;7.97;;
78752;SDS011;68072;51.688;7.842;2023-11-21T04:47:38;14.30;;;7.67;;
78752;SDS011;68072;51.688;7.842;2023-11-21T04:50:03;15.07;;;7.63;;
78752;SDS011;68072;51.688;7.842;2023-11-21T04:52:29;11.23;;;7.05;;
78752;SDS011;68072;51.688;7.842;2023-11-21T04:54:54;15.03;;;8.17;;
78752;SDS011;68072;51.688;7.842;2023-11-21T04:57:20;12.10;;;7.63;;
78752;SDS011;68072;51.688;7.842;2023-11-21T04:59:45;17.63;;;8.75;;
78752;SDS011;68072;51.688;7.842;2023-11-21T05:02:11;14.83;;;8.70;;
78752;SDS011;68072;51.688;7.842;2023-11-21T05:04:37;15.13;;;8.40;;
78752;SDS011;68072;51.688;7.842;2023-11-21T05:07:02;14.13;;;7.87;;
78752;SDS011;68072;51.688;7.842;2023-11-21T05:09:27;12.90;;;7.83;;
78752;SDS011;68072;51.688;7.842;2023-11-21T05:11:56;17.77;;;8.50;;
78752;SDS011;68072;51.688;7.842;2023-11-21T05:14:22;20.20;;;8.57;;
78752;SDS011;68072;51.688;7.842;2023-11-21T05:16:47;17.87;;;8.30;;
78752;SDS011;68072;51.688;7.842;2023-11-21T05:19:12;16.93;;;8.43;;
78752;SDS011;68072;51.688;7.842;2023-11-21T05:21:38;23.05;;;8.15;;
78752;SDS011;68072;51.688;7.842;2023-11-21T05:24:03;18.65;;;8.35;;
78752;SDS011;68072;51.688;7.842;2023-11-21T05:26:30;19.30;;;8.43;;
78752;SDS011;68072;51.688;7.842;2023-11-21T05:28:55;24.67;;;8.93;;
78752;SDS011;68072;51.688;7.842;2023-11-21T05:31:20;23.13;;;9.37;;
78752;SDS011;68072;51.688;7.842;2023-11-21T05:33:46;20.33;;;8.27;;
78752;SDS011;68072;51.688;7.842;2023-11-21T05:36:12;20.50;;;9.50;;
78752;SDS011;68072;51.688;7.842;2023-11-21T05:38:38;25.75;;;9.82;;
78752;SDS011;68072;51.688;7.842;2023-11-21T05:41:03;24.80;;;9.83;;
78752;SDS011;68072;51.688;7.842;2023-11-21T05:43:31;27.50;;;10.60;;
78752;SDS011;68072;51.688;7.842;2023-11-21T05:45:57;30.20;;;10.93;;
78752;SDS011;68072;51.688;7.842;2023-11-21T05:48:22;27.10;;;10.77;;
78752;SDS011;68072;51.688;7.842;2023-11-21T05:50:48;28.40;;;11.77;;
78752;SDS011;68072;51.688;7.842;2023-11-21T05:53:14;23.73;;;10.45;;
78752;SDS011;68072;51.688;7.842;2023-11-21T05:55:41;28.33;;;10.57;;
78752;SDS011;68072;51.688;7.842;2023-11-21T05:58:06;30.92;;;11.68;;
78752;SDS011;68072;51.688;7.842;2023-11-21T06:00:32;29.10;;;12.05;;
78752;SDS011;68072;51.688;7.842;2023-11-21T06:02:58;29.90;;;11.77;;
78752;SDS011;68072;51.688;7.842;2023-11-21T06:05:24;27.27;;;10.98;;
78752;SDS011;68072;51.688;7.842;2023-11-21T06:07:50;37.13;;;11.45;;
78752;SDS011;68072;51.688;7.842;2023-11-21T06:10:15;33.05;;;11.90;;
78752;SDS011;68072;51.688;7.842;2023-11-21T06:12:42;29.38;;;11.40;;
78752;SDS011;68072;51.688;7.842;2023-11-21T06:15:08;29.92;;;12.20;;
78752;SDS011;68072;51.688;7.842;2023-11-21T06:17:34;39.95;;;12.32;;
78752;SDS011;68072;51.688;7.842;2023-11-21T06:20:05;30.17;;;12.23;;
78752;SDS011;68072;51.688;7.842;2023-11-21T06:22:37;29.73;;;11.30;;
78752;SDS011;68072;51.688;7.842;2023-11-21T06:25:03;29.70;;;12.43;;
78752;SDS011;68072;51.688;7.842;2023-11-21T06:27:37;31.13;;;11.10;;
78752;SDS011;68072;51.688;7.842;2023-11-21T06:30:02;31.10;;;11.73;;
78752;SDS011;68072;51.688;7.842;2023-11-21T06:32:27;27.35;;;11.07;;
78752;SDS011;68072;51.688;7.842;2023-11-21T06:34:55;31.55;;;12.18;;
78752;SDS011;68072;51.688;7.842;2023-11-21T06:37:20;30.70;;;11.07;;
78752;SDS011;68072;51.688;7.842;2023-11-21T06:39:48;26.40;;;11.48;;
78752;SDS011;68072;51.688;7.842;2023-11-21T06:42:13;20.80;;;10.57;;
78752;SDS011;68072;51.688;7.842;2023-11-21T06:44:40;32.60;;;10.68;;
78752;SDS011;68072;51.688;7.842;2023-11-21T06:47:06;31.65;;;10.98;;
78752;SDS011;68072;51.688;7.842;2023-11-21T06:49:31;29.37;;;11.23;;
78752;SDS011;68072;51.688;7.842;2023-11-21T06:51:57;36.70;;;11.47;;
78752;SDS011;68072;51.688;7.842;2023-11-21T06:54:22;36.38;;;11.38;;
78752;SDS011;68072;51.688;7.842;2023-11-21T06:56:47;35.67;;;10.57;;
78752;SDS011;68072;51.688;7.842;2023-11-21T06:59:13;35.73;;;11.37;;
78752;SDS011;68072;51.688;7.842;2023-11-21T07:01:38;38.20;;;11.95;;
78752;SDS011;68072;51.688;7.842;2023-11-21T07:04:06;25.52;;;9.85;;
78752;SDS011;68072;51.688;7.842;2023-11-21T07:06:32;35.45;;;11.48;;
78752;SDS011;68072;51.688;7.842;2023-11-21T07:08:57;30.27;;;11.03;;
78752;SDS011;68072;51.688;7.842;2023-11-21T07:11:23;29.83;;;10.13;;
78752;SDS011;68072;51.688;7.842;2023-11-21T07:13:48;33.63;;;11.43;;
78752;SDS011;68072;51.688;7.842;2023-11-21T07:16:14;39.60;;;12.20;;
78752;SDS011;68072;51.688;7.842;2023-11-21T07:21:05;36.37;;;12.17;;
78752;SDS011;68072;51.688;7.842;2023-11-21T07:23:31;41.10;;;12.07;;
78752;SDS011;68072;51.688;7.842;2023-11-21T07:25:56;39.03;;;12.27;;
78752;SDS011;68072;51.688;7.842;2023-11-21T07:28:22;38.88;;;11.60;;
78752;SDS011;68072;51.688;7.842;2023-11-21T07:30:48;40.10;;;10.73;;
78752;SDS011;68072;51.688;7.842;2023-11-21T07:33:14;44.33;;;13.63;;
78752;SDS011;68072;51.688;7.842;2023-11-21T07:35:39;34.83;;;11.30;;
78752;SDS011;68072;51.688;7.842;2023-11-21T07:38:04;41.47;;;12.87;;
78752;SDS011;68072;51.688;7.842;2023-11-21T07:40:29;40.87;;;12.33;;
78752;SDS011;68072;51.688;7.842;2023-11-21T07:42:55;33.47;;;12.80;;
78752;SDS011;68072;51.688;7.842;2023-11-21T07:45:22;41.00;;;11.90;;
78752;SDS011;68072;51.688;7.842;2023-11-21T07:47:47;34.60;;;10.80;;
78752;SDS011;68072;51.688;7.842;2023-11-21T07:50:12;42.80;;;12.30;;
78752;SDS011;68072;51.688;7.842;2023-11-21T07:52:38;39.03;;;12.40;;
78752;SDS011;68072;51.688;7.842;2023-11-21T07:55:04;35.97;;;11.75;;
78752;SDS011;68072;51.688;7.842;2023-11-21T07:57:30;32.22;;;11.48;;
78752;SDS011;68072;51.688;7.842;2023-11-21T07:59:55;42.67;;;12.90;;
78752;SDS011;68072;51.688;7.842;2023-11-21T08:02:21;29.73;;;11.05;;
78752;SDS011;68072;51.688;7.842;2023-11-21T08:04:46;32.60;;;11.10;;
78752;SDS011;68072;51.688;7.842;2023-11-21T08:07:14;42.42;;;11.05;;
78752;SDS011;68072;51.688;7.842;2023-11-21T08:09:39;39.00;;;11.27;;
78752;SDS011;68072;51.688;7.842;2023-11-21T08:12:04;39.10;;;11.60;;
78752;SDS011;68072;51.688;7.842;2023-11-21T08:14:30;29.58;;;10.88;;
78752;SDS011;68072;51.688;7.842;2023-11-21T08:16:55;28.87;;;9.37;;
78752;SDS011;68072;51.688;7.842;2023-11-21T08:19:23;29.20;;;9.38;;
78752;SDS011;68072;51.688;7.842;2023-11-21T08:21:50;36.28;;;10.98;;
78752;SDS011;68072;51.688;7.842;2023-11-21T08:24:15;35.17;;;11.85;;
78752;SDS011;68072;51.688;7.842;2023-11-21T08:26:41;27.10;;;10.45;;
78752;SDS011;68072;51.688;7.842;2023-11-21T08:29:06;29.90;;;10.10;;
78752;SDS011;68072;51.688;7.842;2023-11-21T08:31:32;33.53;;;10.65;;
78752;SDS011;68072;51.688;7.842;2023-11-21T08:33:57;32.40;;;10.35;;
78752;SDS011;68072;51.688;7.842;2023-11-21T08:36:22;31.23;;;10.57;;
78752;SDS011;68072;51.688;7.842;2023-11-21T08:38:51;31.27;;;10.77;;
78752;SDS011;68072;51.688;7.842;2023-11-21T08:41:19;33.92;;;10.32;;
78752;SDS011;68072;51.688;7.842;2023-11-21T08:43:49;25.50;;;9.43;;
78752;SDS011;68072;51.688;7.842;2023-11-21T08:46:14;29.75;;;10.25;;
78752;SDS011;68072;51.688;7.842;2023-11-21T08:48:40;32.53;;;10.43;;
78752;SDS011;68072;51.688;7.842;2023-11-21T08:51:06;34.63;;;10.88;;
78752;SDS011;68072;51.688;7.842;2023-11-21T08:53:31;31.98;;;10.32;;
78752;SDS011;68072;51.688;7.842;2023-11-21T08:55:56;37.57;;;10.97;;
78752;SDS011;68072;51.688;7.842;2023-11-21T08:58:22;30.58;;;11.32;;
78752;SDS011;68072;51.688;7.842;2023-11-21T09:00:47;33.73;;;11.27;;
78752;SDS011;68072;51.688;7.842;2023-11-21T09:03:12;38.83;;;12.50;;
78752;SDS011;68072;51.688;7.842;2023-11-21T09:05:38;32.60;;;11.48;;
78752;SDS011;68072;51.688;7.842;2023-11-21T09:08:04;31.27;;;11.27;;
78752;SDS011;68072;51.688;7.842;2023-11-21T09:10:29;30.40;;;11.27;;
78752;SDS011;68072;51.688;7.842;2023-11-21T09:12:54;30.77;;;11.33;;
78752;SDS011;68072;51.688;7.842;2023-11-21T09:15:19;31.60;;;10.63;;
78752;SDS011;68072;51.688;7.842;2023-11-21T09:17:45;31.90;;;11.38;;
78752;SDS011;68072;51.688;7.842;2023-11-21T09:20:11;32.60;;;11.55;;
78752;SDS011;68072;51.688;7.842;2023-11-21T09:22:36;37.00;;;11.50;;
78752;SDS011;68072;51.688;7.842;2023-11-21T09:25:02;29.60;;;11.53;;
78752;SDS011;68072;51.688;7.842;2023-11-21T09:27:30;36.20;;;11.43;;
78752;SDS011;68072;51.688;7.842;2023-11-21T09:29:56;34.55;;;12.65;;
78752;SDS011;68072;51.688;7.842;2023-11-21T09:32:23;28.13;;;11.13;;
78752;SDS011;68072;51.688;7.842;2023-11-21T09:34:48;29.97;;;12.23;;
78752;SDS011;68072;51.688;7.842;2023-11-21T09:37:13;36.45;;;12.95;;
78752;SDS011;68072;51.688;7.842;2023-11-21T09:39:39;29.25;;;11.75;;
78752;SDS011;68072;51.688;7.842;2023-11-21T09:42:12;33.70;;;11.57;;
78752;SDS011;68072;51.688;7.842;2023-11-21T09:47:07;32.13;;;11.85;;
78752;SDS011;68072;51.688;7.842;2023-11-21T09:49:35;35.78;;;12.02;;
78752;SDS011;68072;51.688;7.842;2023-11-21T09:52:02;37.53;;;11.52;;
78752;SDS011;68072;51.688;7.842;2023-11-21T09:54:31;36.10;;;11.75;;
78752;SDS011;68072;51.688;7.842;2023-11-21T09:56:57;32.22;;;11.82;;
78752;SDS011;68072;51.688;7.842;2023-11-21T09:59:23;33.92;;;13.00;;
78752;SDS011;68072;51.688;7.842;2023-11-21T10:01:48;36.15;;;11.68;;
78752;SDS011;68072;51.688;7.842;2023-11-21T10:04:15;38.47;;;11.73;;
78752;SDS011;68072;51.688;7.842;2023-11-21T10:06:42;27.15;;;9.38;;
78752;SDS011;68072;51.688;7.842;2023-11-21T10:09:11;28.67;;;10.02;;
78752;SDS011;68072;51.688;7.842;2023-11-21T10:11:43;30.77;;;10.23;;
78752;SDS011;68072;51.688;7.842;2023-11-21T10:14:12;27.45;;;10.82;;
78752;SDS011;68072;51.688;7.842;2023-11-21T10:16:39;31.30;;;10.15;;
78752;SDS011;68072;51.688;7.842;2023-11-21T10:19:05;25.45;;;10.88;;
78752;SDS011;68072;51.688;7.842;2023-11-21T10:21:33;32.85;;;9.10;;
78752;SDS011;68072;51.688;7.842;2023-11-21T10:23:58;31.80;;;9.27;;
78752;SDS011;68072;51.688;7.842;2023-11-21T10:26:24;32.70;;;10.90;;
78752;SDS011;68072;51.688;7.842;2023-11-21T10:29:01;30.52;;;9.18;;
78752;SDS011;68072;51.688;7.842;2023-11-21T10:31:28;36.92;;;11.13;;
78752;SDS011;68072;51.688;7.842;2023-11-21T10:36:24;26.20;;;9.97;;
78752;SDS011;68072;51.688;7.842;2023-11-21T10:38:50;32.47;;;10.02;;
78752;SDS011;68072;51.688;7.842;2023-11-21T10:41:18;30.95;;;9.95;;
78752;SDS011;68072;51.688;7.842;2023-11-21T10:43:43;27.33;;;8.83;;
78752;SDS011;68072;51.688;7.842;2023-11-21T10:46:09;24.85;;;9.07;;
78752;SDS011;68072;51.688;7.842;2023-11-21T10:48:34;28.63;;;8.50;;
78752;SDS011;68072;51.688;7.842;2023-11-21T10:51:00;24.83;;;8.75;;
78752;SDS011;68072;51.688;7.842;2023-11-21T10:53:31;24.88;;;8.25;;
78752;SDS011;68072;51.688;7.842;2023-11-21T10:56:05;20.27;;;8.70;;
78752;SDS011;68072;51.688;7.842;2023-11-21T10:58:31;25.05;;;7.75;;
78752;SDS011;68072;51.688;7.842;2023-11-21T11:00:57;17.40;;;7.43;;
78752;SDS011;68072;51.688;7.842;2023-11-21T11:03:23;18.02;;;7.43;;
78752;SDS011;68072;51.688;7.842;2023-11-21T11:05:48;20.67;;;6.85;;
78752;SDS011;68072;51.688;7.842;2023-11-21T11:08:16;16.20;;;7.18;;
78752;SDS011;68072;51.688;7.842;2023-11-21T11:10:44;13.48;;;5.68;;
78752;SDS011;68072;51.688;7.842;2023-11-21T11:13:11;16.50;;;6.95;;
78752;SDS011;68072;51.688;7.842;2023-11-21T11:15:39;18.27;;;7.65;;
78752;SDS011;68072;51.688;7.842;2023-11-21T11:18:05;13.35;;;6.63;;
78752;SDS011;68072;51.688;7.842;2023-11-21T11:20:36;18.33;;;6.22;;
78752;SDS011;68072;51.688;7.842;2023-11-21T11:28:21;19.98;;;7.22;;
78752;SDS011;68072;51.688;7.842;2023-11-21T11:30:53;23.70;;;7.63;;
78752;SDS011;68072;51.688;7.842;2023-11-21T11:33:42;16.75;;;6.90;;
78752;SDS011;68072;51.688;7.842;2023-11-21T11:36:17;16.83;;;7.00;;
78752;SDS011;68072;51.688;7.842;2023-11-21T11:38:46;22.90;;;7.05;;
78752;SDS011;68072;51.688;7.842;2023-11-21T11:41:11;15.93;;;6.82;;
78752;SDS011;68072;51.688;7.842;2023-11-21T11:43:37;16.02;;;6.60;;
78752;SDS011;68072;51.688;7.842;2023-11-21T11:46:09;17.77;;;7.63;;
78752;SDS011;68072;51.688;7.842;2023-11-21T11:48:37;17.88;;;7.25;;
78752;SDS011;68072;51.688;7.842;2023-11-21T11:51:10;17.88;;;7.60;;
78752;SDS011;68072;51.688;7.842;2023-11-21T11:53:43;17.10;;;6.60;;
78752;SDS011;68072;51.688;7.842;2023-11-21T11:56:27;15.25;;;6.47;;
78752;SDS011;68072;51.688;7.842;2023-11-21T11:58:57;15.00;;;5.88;;
78752;SDS011;68072;51.688;7.842;2023-11-21T12:01:22;13.55;;;6.57;;
78752;SDS011;68072;51.688;7.842;2023-11-21T12:04:22;13.27;;;6.50;;
78752;SDS011;68072;51.688;7.842;2023-11-21T12:06:34;15.63;;;7.18;;
78752;SDS011;68072;51.688;7.842;2023-11-21T12:09:03;18.13;;;7.63;;
78752;SDS011;68072;51.688;7.842;2023-11-21T12:11:31;14.73;;;6.97;;
78752;SDS011;68072;51.688;7.842;2023-11-21T12:13:57;16.90;;;7.03;;
78752;SDS011;68072;51.688;7.842;2023-11-21T12:16:24;17.92;;;8.00;;
78752;SDS011;68072;51.688;7.842;2023-11-21T12:18:52;15.30;;;7.53;;
78752;SDS011;68072;51.688;7.842;2023-11-21T12:21:18;17.58;;;7.80;;
78752;SDS011;68072;51.688;7.842;2023-11-21T12:23:44;14.55;;;6.07;;
78752;SDS011;68072;51.688;7.842;2023-11-21T12:26:10;16.98;;;7.22;;
78752;SDS011;68072;51.688;7.842;2023-11-21T12:28:36;15.07;;;6.40;;
78752;SDS011;68072;51.688;7.842;2023-11-21T12:31:01;20.80;;;6.63;;
78752;SDS011;68072;51.688;7.842;2023-11-21T12:33:26;14.17;;;6.10;;
78752;SDS011;68072;51.688;7.842;2023-11-21T12:35:54;12.57;;;5.85;;
78752;SDS011;68072;51.688;7.842;2023-11-21T12:38:19;17.87;;;7.33;;
78752;SDS011;68072;51.688;7.842;2023-11-21T12:40:44;12.82;;;6.85;;
78752;SDS011;68072;51.688;7.842;2023-11-21T12:43:10;9.90;;;4.60;;
78752;SDS011;68072;51.688;7.842;2023-11-21T12:45:35;11.45;;;5.80;;
78752;SDS011;68072;51.688;7.842;2023-11-21T12:48:04;11.05;;;4.72;;
78752;SDS011;68072;51.688;7.842;2023-11-21T12:50:32;11.45;;;4.63;;
78752;SDS011;68072;51.688;7.842;2023-11-21T12:53:02;9.48;;;5.60;;
78752;SDS011;68072;51.688;7.842;2023-11-21T12:55:32;9.60;;;5.18;;
78752;SDS011;68072;51.688;7.842;2023-11-21T12:57:57;7.47;;;4.40;;
78752;SDS011;68072;51.688;7.842;2023-11-21T13:00:32;6.85;;;3.83;;
78752;SDS011;68072;51.688;7.842;2023-11-21T13:02:59;6.40;;;3.78;;
78752;SDS011;68072;51.688;7.842;2023-11-21T13:05:28;5.57;;;3.58;;
78752;SDS011;68072;51.688;7.842;2023-11-21T13:07:57;4.25;;;3.22;;
78752;SDS011;68072;51.688;7.842;2023-11-21T13:10:23;6.65;;;3.95;;
78752;SDS011;68072;51.688;7.842;2023-11-21T13:12:51;5.75;;;3.60;;
78752;SDS011;68072;51.688;7.842;2023-11-21T13:15:17;5.35;;;3.33;;
78752;SDS011;68072;51.688;7.842;2023-11-21T13:17:43;9.15;;;3.45;;
78752;SDS011;68072;51.688;7.842;2023-11-21T13:20:09;4.75;;;3.10;;
78752;SDS011;68072;51.688;7.842;2023-11-21T13:22:44;5.13;;;3.42;;
78752;SDS011;68072;51.688;7.842;2023-11-21T13:25:09;6.97;;;3.58;;
78752;SDS011;68072;51.688;7.842;2023-11-21T13:27:34;8.37;;;4.40;;
78752;SDS011;68072;51.688;7.842;2023-11-21T13:30:02;10.05;;;4.32;;
78752;SDS011;68072;51.688;7.842;2023-11-21T13:32:28;6.50;;;3.55;;
78752;SDS011;68072;51.688;7.842;2023-11-21T13:34:54;4.68;;;3.35;;
78752;SDS011;68072;51.688;7.842;2023-11-21T13:37:20;4.82;;;3.13;;
78752;SDS011;68072;51.688;7.842;2023-11-21T13:39:45;6.55;;;3.75;;
78752;SDS011;68072;51.688;7.842;2023-11-21T13:42:15;5.10;;;3.03;;
78752;SDS011;68072;51.688;7.842;2023-11-21T13:44:41;6.22;;;3.65;;
78752;SDS011;68072;51.688;7.842;2023-11-21T13:47:09;5.43;;;3.55;;
78752;SDS011;68072;51.688;7.842;2023-11-21T13:49:35;5.83;;;3.60;;
78752;SDS011;68072;51.688;7.842;2023-11-21T13:52:05;7.80;;;4.88;;
78752;SDS011;68072;51.688;7.842;2023-11-21T13:56:57;12.27;;;6.13;;
78752;SDS011;68072;51.688;7.842;2023-11-21T13:59:24;15.68;;;7.60;;
78752;SDS011;68072;51.688;7.842;2023-11-21T14:01:55;15.18;;;8.13;;
78752;SDS011;68072;51.688;7.842;2023-11-21T14:04:21;13.90;;;7.40;;
78752;SDS011;68072;51.688;7.842;2023-11-21T14:07:04;17.83;;;7.82;;
78752;SDS011;68072;51.688;7.842;2023-11-21T14:09:39;15.15;;;8.27;;
78752;SDS011;68072;51.688;7.842;2023-11-21T14:12:08;13.38;;;7.07;;
78752;SDS011;68072;51.688;7.842;2023-11-21T14:14:35;14.43;;;7.85;;
78752;SDS011;68072;51.688;7.842;2023-11-21T14:17:00;12.85;;;7.00;;
78752;SDS011;68072;51.688;7.842;2023-11-21T14:19:29;13.75;;;7.38;;
78752;SDS011;68072;51.688;7.842;2023-11-21T14:21:58;12.57;;;7.28;;
78752;SDS011;68072;51.688;7.842;2023-11-21T14:24:24;10.57;;;6.50;;
78752;SDS011;68072;51.688;7.842;2023-11-21T14:26:49;17.98;;;6.80;;
78752;SDS011;68072;51.688;7.842;2023-11-21T14:29:16;10.00;;;6.03;;
78752;SDS011;68072;51.688;7.842;2023-11-21T14:31:45;21.13;;;9.95;;
78752;SDS011;68072;51.688;7.842;2023-11-21T14:34:10;22.67;;;9.77;;
78752;SDS011;68072;51.688;7.842;2023-11-21T14:36:37;18.63;;;9.57;;
78752;SDS011;68072;51.688;7.842;2023-11-21T14:41:32;11.10;;;6.05;;
78752;SDS011;68072;51.688;7.842;2023-11-21T14:44:00;17.35;;;7.90;;